Time;durP1;ratioP1;P1;durP2;ratioP2;P2;SDS_P1;SDS_P2;PMS_P1;PMS_P2;Temp;Humidity;BMP_temperature;BMP_pressure;BME280_temperature;BME280_humidity;BME280_pressure;Samples;Min_cycle;Max_cycle;Signal;HPM_P1;HPM_P2
2022/02/08 00:01:12;;;;;;;4.07;1.38;;;;;;;;;;5030969;28;20041;-81
2022/02/08 00:03:38;;;;;;;4.43;1.42;;;;;;;;;;5014053;28;20042;-83
2022/02/08 00:06:25;;;;;;;3.72;1.30;;;;;;;;;;5012671;28;20037;-82
2022/02/08 00:08:51;;;;;;;4.93;1.40;;;;;;;;;;5013102;28;20018;-82
2022/02/08 00:11:17;;;;;;;4.75;1.65;;;;;;;;;;5014543;28;20022;-83
2022/02/08 00:13:46;;;;;;;5.03;1.67;;;;;;;;;;5044156;28;20049;-81
2022/02/08 00:16:12;;;;;;;3.97;1.30;;;;;;;;;;5013540;28;20097;-83
2022/02/08 00:18:38;;;;;;;4.38;1.50;;;;;;;;;;5011938;28;20382;-81
2022/02/08 00:21:04;;;;;;;4.53;1.55;;;;;;;;;;5012894;28;20180;-81
2022/02/08 00:23:30;;;;;;;7.38;2.10;;;;;;;;;;5012305;28;20018;-82
2022/02/08 00:25:56;;;;;;;5.28;1.60;;;;;;;;;;5014519;28;20061;-82
2022/02/08 00:28:22;;;;;;;4.82;1.63;;;;;;;;;;5028172;28;20042;-82
2022/02/08 00:30:49;;;;;;;3.45;1.40;;;;;;;;;;5030585;28;20030;-83
2022/02/08 00:33:15;;;;;;;4.82;1.30;;;;;;;;;;5029331;28;20022;-84
2022/02/08 00:35:44;;;;;;;7.07;1.77;;;;;;;;;;5028853;28;20501;-82
2022/02/08 00:38:12;;;;;;;5.15;1.48;;;;;;;;;;5027766;28;20037;-83
2022/02/08 00:40:38;;;;;;;3.40;1.20;;;;;;;;;;5027342;28;20021;-82
2022/02/08 00:43:06;;;;;;;5.30;1.50;;;;;;;;;;5016200;28;20041;-81
2022/02/08 00:51:02;;;;;;;6.07;1.65;;;;;;;;;;4967308;28;20428;-81
2022/02/08 00:53:30;;;;;;;4.10;1.70;;;;;;;;;;5000253;28;20037;-83
2022/02/08 00:55:56;;;;;;;4.75;2.33;;;;;;;;;;5021982;28;20030;-83
2022/02/08 00:58:22;;;;;;;7.18;1.98;;;;;;;;;;5011158;28;20055;-82
2022/02/08 01:00:49;;;;;;;5.15;2.10;;;;;;;;;;5010310;28;20024;-84
2022/02/08 01:03:16;;;;;;;6.57;2.17;;;;;;;;;;5011308;28;20555;-83
2022/02/08 01:05:48;;;;;;;5.78;1.88;;;;;;;;;;5028460;28;20018;-82
2022/02/08 01:08:14;;;;;;;6.28;2.38;;;;;;;;;;5028563;28;20033;-81
2022/02/08 01:10:42;;;;;;;6.07;2.25;;;;;;;;;;5023204;28;20034;-81
2022/02/08 01:13:09;;;;;;;7.13;2.13;;;;;;;;;;5008862;28;20036;-83
2022/02/08 01:15:35;;;;;;;5.10;2.17;;;;;;;;;;5011345;28;20040;-82
2022/02/08 01:18:05;;;;;;;5.72;1.95;;;;;;;;;;5010392;28;20068;-82
2022/02/08 01:20:34;;;;;;;6.32;2.03;;;;;;;;;;5011678;28;20529;-83
2022/02/08 01:23:03;;;;;;;5.68;1.70;;;;;;;;;;5010655;28;20018;-82
2022/02/08 01:25:34;;;;;;;6.43;1.92;;;;;;;;;;5009639;28;20022;-81
2022/02/08 01:28:11;;;;;;;8.82;2.00;;;;;;;;;;5010013;28;20045;-82
2022/02/08 01:36:22;;;;;;;4.00;1.80;;;;;;;;;;5028312;28;20025;-82
2022/02/08 01:38:33;;;;;;;4.63;1.60;;;;;;;;;;5033438;28;20046;-82
2022/02/08 01:50:56;;;;;;;6.28;1.83;;;;;;;;;;5028553;28;20046;-82
2022/02/08 01:53:23;;;;;;;6.65;1.83;;;;;;;;;;5028841;28;20053;-83
2022/02/08 01:55:50;;;;;;;6.50;1.50;;;;;;;;;;5010555;28;20030;-83
2022/02/08 01:58:16;;;;;;;5.43;1.70;;;;;;;;;;5027587;28;20041;-84
2022/02/08 02:00:44;;;;;;;5.28;1.83;;;;;;;;;;5010663;28;20022;-83
2022/02/08 02:03:10;;;;;;;6.00;2.08;;;;;;;;;;5011537;28;20029;-82
2022/02/08 02:05:37;;;;;;;4.93;1.88;;;;;;;;;;5030045;28;20025;-83
2022/02/08 02:08:07;;;;;;;4.22;1.45;;;;;;;;;;5035188;28;20021;-82
2022/02/08 02:10:33;;;;;;;5.18;2.15;;;;;;;;;;5031120;28;20053;-82
2022/02/08 02:13:01;;;;;;;5.00;1.80;;;;;;;;;;5047119;28;20048;-82
2022/02/08 02:15:28;;;;;;;4.07;1.80;;;;;;;;;;5047993;28;20037;-82
2022/02/08 02:17:57;;;;;;;5.28;2.33;;;;;;;;;;5032986;28;20057;-83
2022/02/08 02:20:23;;;;;;;5.28;1.80;;;;;;;;;;5029162;28;20013;-83
2022/02/08 02:22:49;;;;;;;5.65;2.17;;;;;;;;;;5011933;28;20042;-81
2022/02/08 02:25:19;;;;;;;5.75;2.30;;;;;;;;;;5026533;28;20026;-81
2022/02/08 02:27:46;;;;;;;5.18;2.40;;;;;;;;;;5028439;28;20392;-84
2022/02/08 02:30:12;;;;;;;8.13;2.30;;;;;;;;;;5011588;28;20006;-83
2022/02/08 02:32:44;;;;;;;4.28;2.13;;;;;;;;;;5028190;28;20034;-84
2022/02/08 02:35:11;;;;;;;8.05;2.40;;;;;;;;;;5021620;28;20033;-81
2022/02/08 02:37:37;;;;;;;6.57;2.67;;;;;;;;;;5023276;28;20049;-83
2022/02/08 02:40:07;;;;;;;6.13;1.77;;;;;;;;;;5053260;28;20029;-83
2022/02/08 02:42:34;;;;;;;5.20;2.25;;;;;;;;;;5054313;28;20025;-83
2022/02/08 02:45:00;;;;;;;7.70;2.50;;;;;;;;;;5035840;28;20009;-82
2022/02/08 02:47:27;;;;;;;7.60;2.05;;;;;;;;;;5035118;28;20053;-82
2022/02/08 02:49:53;;;;;;;6.22;2.15;;;;;;;;;;5034226;28;20090;-82
2022/02/08 02:52:19;;;;;;;6.70;2.45;;;;;;;;;;5019275;28;20032;-82
2022/02/08 02:54:50;;;;;;;5.53;2.63;;;;;;;;;;5037580;28;20034;-82
2022/02/08 02:57:17;;;;;;;4.60;1.90;;;;;;;;;;5019093;28;20059;-82
2022/02/08 02:59:46;;;;;;;5.75;2.15;;;;;;;;;;5034744;28;20430;-83
2022/02/08 03:05:37;;;;;;;8.95;2.40;;;;;;;;;;4972411;29;20157;-83
2022/02/08 03:19:01;;;;;;;6.53;2.78;;;;;;;;;;4970599;29;20062;-83
2022/02/08 03:21:27;;;;;;;6.50;2.38;;;;;;;;;;4953818;29;20034;-83
2022/02/08 03:23:54;;;;;;;8.85;2.60;;;;;;;;;;4953558;29;20028;-84
2022/02/08 03:26:20;;;;;;;5.25;2.45;;;;;;;;;;4954185;29;20035;-83
2022/02/08 03:28:46;;;;;;;6.32;2.80;;;;;;;;;;4954136;29;20123;-83
2022/02/08 03:31:12;;;;;;;5.65;2.22;;;;;;;;;;4969631;29;20772;-82
2022/02/08 03:33:40;;;;;;;7.97;2.67;;;;;;;;;;4952610;29;20495;-82
2022/02/08 03:36:10;;;;;;;7.15;2.50;;;;;;;;;;4950981;29;20150;-82
2022/02/08 03:38:40;;;;;;;6.57;2.75;;;;;;;;;;4965392;28;20056;-82
2022/02/08 03:41:08;;;;;;;5.75;2.60;;;;;;;;;;5010040;28;20026;-82
2022/02/08 03:43:39;;;;;;;6.82;3.10;;;;;;;;;;5036880;28;20428;-80
2022/02/08 03:46:14;;;;;;;5.68;2.58;;;;;;;;;;5029911;28;20041;-81
2022/02/08 03:48:42;;;;;;;6.70;3.10;;;;;;;;;;5027261;28;20021;-80
2022/02/08 03:51:15;;;;;;;7.05;3.35;;;;;;;;;;5016683;28;20029;-81
2022/02/08 03:53:44;;;;;;;6.07;3.00;;;;;;;;;;5029249;28;20047;-80
2022/02/08 03:56:14;;;;;;;7.03;3.55;;;;;;;;;;5030156;28;20030;-82
2022/02/08 03:58:40;;;;;;;8.25;3.28;;;;;;;;;;5030706;28;20109;-81
2022/02/08 04:06:56;;;;;;;5.72;3.08;;;;;;;;;;5006645;28;20058;-83
2022/02/08 04:09:23;;;;;;;6.38;3.17;;;;;;;;;;4991808;28;20180;-82
2022/02/08 04:11:58;;;;;;;9.32;4.18;;;;;;;;;;5020437;28;20072;-82
2022/02/08 04:14:41;;;;;;;6.00;2.80;;;;;;;;;;5050133;28;20017;-82
2022/02/08 04:17:34;;;;;;;7.13;3.38;;;;;;;;;;5042446;28;20040;-82
2022/02/08 04:39:12;;;;;;;6.25;2.47;;;;;;;;;;5050307;28;20037;-83
2022/02/08 04:41:36;;;;;;;5.47;2.10;;;;;;;;;;5049442;28;20036;-83
2022/02/08 04:49:14;;;;;;;5.55;2.08;;;;;;;;;;5050250;28;20040;-84
2022/02/08 04:51:51;;;;;;;4.22;2.20;;;;;;;;;;5051635;28;20048;-82
2022/02/08 04:54:30;;;;;;;5.90;2.50;;;;;;;;;;5033749;28;20049;-81
2022/02/08 04:57:25;;;;;;;4.97;2.22;;;;;;;;;;5034816;28;20045;-83
2022/02/08 05:00:13;;;;;;;4.25;2.00;;;;;;;;;;5046902;28;20017;-82
2022/02/08 05:35:28;;;;;;;5.68;2.63;;;;;;;;;;5047948;28;20048;-85
2022/02/08 05:43:59;;;;;;;5.45;2.50;;;;;;;;;;5050676;28;20164;-83
2022/02/08 05:48:51;;;;;;;5.50;2.67;;;;;;;;;;5058685;28;20481;-82
2022/02/08 05:51:21;;;;;;;8.77;2.60;;;;;;;;;;5045914;28;20382;-82
2022/02/08 05:53:48;;;;;;;5.35;2.55;;;;;;;;;;5045850;28;20022;-81
2022/02/08 05:56:15;;;;;;;8.68;2.65;;;;;;;;;;5046777;28;20025;-81
2022/02/08 05:58:43;;;;;;;6.47;2.80;;;;;;;;;;5047701;28;20025;-82
2022/02/08 06:01:10;;;;;;;5.97;2.40;;;;;;;;;;5031263;28;20029;-83
2022/02/08 06:03:39;;;;;;;6.55;2.58;;;;;;;;;;5031915;28;20024;-82
2022/02/08 06:06:06;;;;;;;6.00;2.75;;;;;;;;;;5027609;28;20036;-81
2022/02/08 06:08:33;;;;;;;5.97;2.83;;;;;;;;;;5047110;28;20029;-82
2022/02/08 06:11:04;;;;;;;5.32;2.30;;;;;;;;;;5047102;28;20085;-83
2022/02/08 06:13:30;;;;;;;5.82;2.30;;;;;;;;;;5057192;28;20021;-82
2022/02/08 06:16:02;;;;;;;5.10;2.90;;;;;;;;;;5048543;28;20020;-82
2022/02/08 06:18:32;;;;;;;5.38;2.58;;;;;;;;;;5030988;28;20056;-84
2022/02/08 06:20:58;;;;;;;4.50;2.45;;;;;;;;;;5028402;28;20029;-83
2022/02/08 06:23:25;;;;;;;6.07;2.60;;;;;;;;;;5026839;28;20076;-83
2022/02/08 06:25:51;;;;;;;5.53;2.40;;;;;;;;;;5049013;28;20029;-83
2022/02/08 06:28:18;;;;;;;6.68;2.67;;;;;;;;;;5049136;28;20031;-82
2022/02/08 06:30:47;;;;;;;5.10;2.55;;;;;;;;;;5029137;28;20026;-82
2022/02/08 06:33:14;;;;;;;6.18;2.30;;;;;;;;;;5020886;28;20037;-83
2022/02/08 06:35:40;;;;;;;5.45;2.22;;;;;;;;;;5028820;28;20082;-82
2022/02/08 06:38:10;;;;;;;5.45;2.25;;;;;;;;;;5030505;28;20022;-83
2022/02/08 06:40:38;;;;;;;5.00;2.05;;;;;;;;;;5031930;28;20021;-83
2022/02/08 06:43:04;;;;;;;5.30;2.30;;;;;;;;;;5066821;28;20236;-83
2022/02/08 06:45:31;;;;;;;6.22;2.13;;;;;;;;;;5051538;28;20025;-83
2022/02/08 06:47:57;;;;;;;5.30;2.45;;;;;;;;;;5047934;28;20575;-84
2022/02/08 06:50:26;;;;;;;5.22;2.30;;;;;;;;;;5047655;28;20483;-82
2022/02/08 06:52:53;;;;;;;7.90;2.80;;;;;;;;;;5028111;28;20028;-82
2022/02/08 06:55:24;;;;;;;8.48;2.35;;;;;;;;;;5054286;28;20083;-80
2022/02/08 06:58:14;;;;;;;5.55;2.50;;;;;;;;;;5029998;28;20029;-84
2022/02/08 07:00:39;;;;;;;7.38;2.40;;;;;;;;;;5046238;28;20037;-83
2022/02/08 07:03:07;;;;;;;6.75;3.50;;;;;;;;;;5040730;28;20088;-83
2022/02/08 07:05:33;;;;;;;5.68;2.83;;;;;;;;;;5052191;28;20056;-83
2022/02/08 07:08:00;;;;;;;5.45;2.63;;;;;;;;;;5030407;28;20033;-83
2022/02/08 07:10:27;;;;;;;7.68;2.88;;;;;;;;;;5029174;28;20053;-82
2022/02/08 07:12:54;;;;;;;5.88;2.25;;;;;;;;;;5047417;28;20028;-82
2022/02/08 07:15:21;;;;;;;5.40;2.38;;;;;;;;;;5028727;28;20041;-82
2022/02/08 07:17:47;;;;;;;5.47;2.55;;;;;;;;;;5053869;28;20084;-82
2022/02/08 07:20:13;;;;;;;6.32;3.03;;;;;;;;;;5066816;28;20037;-82
2022/02/08 07:22:48;;;;;;;5.78;2.70;;;;;;;;;;5065757;28;20017;-82
2022/02/08 07:25:14;;;;;;;6.57;3.00;;;;;;;;;;5053616;28;20035;-81
2022/02/08 07:27:41;;;;;;;6.30;3.15;;;;;;;;;;5034474;28;20097;-82
2022/02/08 07:30:12;;;;;;;5.55;3.10;;;;;;;;;;5065443;28;20108;-82
2022/02/08 07:32:40;;;;;;;6.50;3.38;;;;;;;;;;5062465;28;20108;-82
2022/02/08 07:42:53;;;;;;;6.95;2.75;;;;;;;;;;5052634;28;20037;-83
2022/02/08 07:45:19;;;;;;;13.80;3.60;;;;;;;;;;5066170;28;20021;-83
2022/02/08 07:47:46;;;;;;;6.68;3.53;;;;;;;;;;5066543;28;20032;-82
2022/02/08 07:50:15;;;;;;;11.35;3.72;;;;;;;;;;5050201;28;20033;-81
2022/02/08 07:52:43;;;;;;;6.65;3.08;;;;;;;;;;5050272;28;20021;-84
2022/02/08 07:55:09;;;;;;;6.90;2.97;;;;;;;;;;5067911;28;20079;-85
2022/02/08 07:57:36;;;;;;;6.40;3.20;;;;;;;;;;5066881;28;20033;-83
2022/02/08 08:00:02;;;;;;;7.53;2.97;;;;;;;;;;5067204;28;20029;-82
2022/02/08 08:02:28;;;;;;;8.65;3.65;;;;;;;;;;5049244;28;20037;-82
2022/02/08 08:04:55;;;;;;;7.35;3.28;;;;;;;;;;5028088;28;20029;-84
2022/02/08 08:07:21;;;;;;;6.97;2.90;;;;;;;;;;5046782;28;20029;-84
2022/02/08 08:09:48;;;;;;;5.38;2.80;;;;;;;;;;5047065;28;20026;-82
2022/02/08 08:12:15;;;;;;;7.03;3.00;;;;;;;;;;5033562;28;20064;-83
2022/02/08 08:14:41;;;;;;;7.18;2.72;;;;;;;;;;5029137;28;20032;-84
2022/02/08 08:19:53;;;;;;;6.18;3.33;;;;;;;;;;5046026;28;20089;-83
2022/02/08 08:22:20;;;;;;;6.13;2.90;;;;;;;;;;5047741;28;20136;-83
2022/02/08 08:24:49;;;;;;;6.28;2.75;;;;;;;;;;5026685;28;20165;-83
2022/02/08 08:27:18;;;;;;;6.50;2.53;;;;;;;;;;5029026;28;20033;-82
2022/02/08 08:29:44;;;;;;;7.65;2.70;;;;;;;;;;5045850;28;20030;-82
2022/02/08 08:32:10;;;;;;;5.45;3.35;;;;;;;;;;5035219;28;20029;-82
2022/02/08 08:34:37;;;;;;;7.00;2.72;;;;;;;;;;5026105;28;20040;-82
2022/02/08 08:37:04;;;;;;;10.18;2.40;;;;;;;;;;5027612;28;20037;-84
2022/02/08 08:39:51;;;;;;;8.05;2.70;;;;;;;;;;5045732;28;20025;-81
2022/02/08 08:42:39;;;;;;;8.05;3.28;;;;;;;;;;5038073;28;20025;-82
2022/02/08 08:51:15;;;;;;;7.75;3.97;;;;;;;;;;5030276;28;20064;-83
2022/02/08 08:53:23;;;;;;;6.28;3.33;;;;;;;;;;5018224;28;20041;-82
2022/02/08 08:55:49;;;;;;;5.00;2.67;;;;;;;;;;5025368;28;20026;-82
2022/02/08 08:58:16;;;;;;;7.35;2.80;;;;;;;;;;5008001;28;20030;-81
2022/02/08 09:00:42;;;;;;;4.90;2.45;;;;;;;;;;5026753;28;20093;-82
2022/02/08 09:03:08;;;;;;;6.93;3.47;;;;;;;;;;5041176;28;20032;-82
2022/02/08 09:05:34;;;;;;;6.57;2.60;;;;;;;;;;5049195;28;20021;-82
2022/02/08 09:08:01;;;;;;;5.47;2.45;;;;;;;;;;5049300;28;20041;-83
2022/02/08 09:10:36;;;;;;;8.80;2.65;;;;;;;;;;5031293;28;20416;-83
2022/02/08 09:13:21;;;;;;;6.03;2.50;;;;;;;;;;5026236;28;20033;-81
2022/02/08 09:16:28;;;;;;;8.20;2.70;;;;;;;;;;5007377;28;20327;-82
2022/02/08 09:21:59;;;;;;;6.80;3.40;;;;;;;;;;5025411;28;20101;-83
2022/02/08 09:29:39;;;;;;;5.97;2.72;;;;;;;;;;5019185;28;20060;-82
2022/02/08 09:32:16;;;;;;;8.55;3.13;;;;;;;;;;5024903;28;20033;-81
2022/02/08 09:34:43;;;;;;;7.20;3.05;;;;;;;;;;5008920;28;20025;-82
2022/02/08 09:37:13;;;;;;;5.22;2.17;;;;;;;;;;5007960;28;20049;-81
2022/02/08 09:39:41;;;;;;;7.35;2.85;;;;;;;;;;5025297;28;20022;-80
2022/02/08 09:42:08;;;;;;;6.22;3.25;;;;;;;;;;5008407;28;20505;-81
2022/02/08 09:44:35;;;;;;;6.60;2.40;;;;;;;;;;5007754;28;20049;-81
2022/02/08 09:47:05;;;;;;;5.18;2.13;;;;;;;;;;5024801;28;20030;-81
2022/02/08 09:49:40;;;;;;;5.20;2.20;;;;;;;;;;5025788;28;20056;-82
2022/02/08 09:52:07;;;;;;;5.95;1.98;;;;;;;;;;5039554;28;20037;-83
2022/02/08 09:54:34;;;;;;;5.03;1.75;;;;;;;;;;5024468;28;20030;-82
2022/02/08 09:57:00;;;;;;;6.55;2.67;;;;;;;;;;5024650;28;20022;-83
2022/02/08 09:59:29;;;;;;;7.82;2.70;;;;;;;;;;5025446;28;20026;-82
2022/02/08 10:01:56;;;;;;;7.68;2.83;;;;;;;;;;5025497;28;20029;-81
2022/02/08 10:04:23;;;;;;;5.03;2.15;;;;;;;;;;5041804;28;20061;-82
2022/02/08 10:06:49;;;;;;;5.32;2.17;;;;;;;;;;5041537;28;20111;-84
2022/02/08 10:09:15;;;;;;;4.22;1.83;;;;;;;;;;5042048;28;20037;-82
2022/02/08 10:22:38;;;;;;;6.70;2.08;;;;;;;;;;5031839;28;20101;-81
2022/02/08 10:25:06;;;;;;;5.22;1.95;;;;;;;;;;5045160;28;20030;-80
2022/02/08 10:27:51;;;;;;;7.25;2.25;;;;;;;;;;5028412;28;20041;-79
2022/02/08 10:38:40;;;;;;;5.65;1.58;;;;;;;;;;5027323;28;20037;-81
2022/02/08 10:41:34;;;;;;;6.53;2.05;;;;;;;;;;5026471;28;20118;-82
2022/02/08 10:44:03;;;;;;;6.07;2.03;;;;;;;;;;5021007;28;20037;-83
2022/02/08 10:46:29;;;;;;;9.13;3.20;;;;;;;;;;5030917;28;20089;-82
2022/02/08 10:49:06;;;;;;;7.50;2.47;;;;;;;;;;5029401;28;20025;-82
2022/02/08 10:51:38;;;;;;;7.85;2.80;;;;;;;;;;5029928;28;20030;-83
2022/02/08 10:54:10;;;;;;;6.50;2.30;;;;;;;;;;5046227;28;20090;-79
2022/02/08 10:56:39;;;;;;;3.85;1.67;;;;;;;;;;5035961;28;20025;-81
2022/02/08 10:59:29;;;;;;;6.32;2.90;;;;;;;;;;5032029;28;20093;-82
2022/02/08 11:02:03;;;;;;;5.30;2.17;;;;;;;;;;5030181;28;20515;-82
2022/02/08 11:04:46;;;;;;;8.02;2.38;;;;;;;;;;5026997;28;20029;-81
2022/02/08 11:07:27;;;;;;;5.97;2.08;;;;;;;;;;5058620;28;20029;-82
2022/02/08 11:12:42;;;;;;;6.63;2.30;;;;;;;;;;5047025;28;20044;-82
2022/02/08 11:18:11;;;;;;;5.30;1.98;;;;;;;;;;5068128;28;20033;-82
2022/02/08 11:20:39;;;;;;;5.32;1.63;;;;;;;;;;5067850;28;20029;-81
2022/02/08 11:23:21;;;;;;;6.28;1.55;;;;;;;;;;5065676;28;20532;-82
2022/02/08 11:25:50;;;;;;;6.05;1.63;;;;;;;;;;5048052;28;20116;-80
2022/02/08 11:31:42;;;;;;;5.20;1.50;;;;;;;;;;5047700;28;20497;-80
2022/02/08 11:33:58;;;;;;;4.90;1.48;;;;;;;;;;5032152;28;20068;-81
2022/02/08 11:39:49;;;;;;;5.50;1.95;;;;;;;;;;5040950;28;20040;-83
2022/02/08 11:45:37;;;;;;;5.88;1.83;;;;;;;;;;5058179;28;20044;-81
2022/02/08 11:48:15;;;;;;;5.15;1.50;;;;;;;;;;5060920;28;20037;-82
2022/02/08 11:53:22;;;;;;;6.20;2.10;;;;;;;;;;5052020;28;20068;-82
2022/02/08 11:58:45;;;;;;;5.40;2.15;;;;;;;;;;5046218;28;20041;-81
2022/02/08 12:01:24;;;;;;;4.88;1.58;;;;;;;;;;5028894;28;20028;-82
2022/02/08 12:04:15;;;;;;;4.60;1.50;;;;;;;;;;5055899;28;20028;-83
2022/02/08 12:09:41;;;;;;;4.57;1.75;;;;;;;;;;5045709;28;20040;-83
2022/02/08 12:12:32;;;;;;;5.32;1.60;;;;;;;;;;5030133;28;20025;-82
2022/02/08 12:34:43;;;;;;;4.63;1.60;;;;;;;;;;5064723;28;20025;-82
2022/02/08 13:01:42;;;;;;;4.00;1.52;;;;;;;;;;5047237;28;20116;-82
2022/02/08 13:04:23;;;;;;;7.15;1.67;;;;;;;;;;5027378;28;20029;-82
2022/02/08 14:15:12;;;;;;;4.78;1.23;;;;;;;;;;5043827;28;20105;-81
2022/02/08 14:18:38;;;;;;;4.28;1.50;;;;;;;;;;5005724;28;20029;-80
2022/02/08 14:23:09;;;;;;;5.82;1.20;;;;;;;;;;5044297;28;20033;-81
2022/02/08 14:25:59;;;;;;;4.90;1.30;;;;;;;;;;5026927;28;20112;-83
2022/02/08 14:36:40;;;;;;;6.05;1.92;;;;;;;;;;5027171;28;20049;-81
2022/02/08 15:09:37;;;;;;;4.45;1.50;;;;;;;;;;4996910;28;20031;-82
2022/02/08 15:12:16;;;;;;;5.25;1.33;;;;;;;;;;5003464;28;20425;-81
2022/02/08 15:15:10;;;;;;;4.30;1.30;;;;;;;;;;4975328;28;20023;-80
2022/02/08 15:17:34;;;;;;;4.15;1.30;;;;;;;;;;4968861;28;20035;-82
2022/02/08 15:20:03;;;;;;;4.50;1.20;;;;;;;;;;4970179;28;20031;-80
2022/02/08 15:22:29;;;;;;;3.40;1.58;;;;;;;;;;4969998;28;20106;-81
2022/02/08 15:24:58;;;;;;;4.80;1.38;;;;;;;;;;5001641;28;20137;-81
2022/02/08 15:27:27;;;;;;;3.72;1.20;;;;;;;;;;5002063;28;20026;-83
2022/02/08 15:29:55;;;;;;;6.05;1.65;;;;;;;;;;4966205;28;20114;-81
2022/02/08 15:32:21;;;;;;;4.82;1.67;;;;;;;;;;4949123;29;20126;-80
2022/02/08 15:34:48;;;;;;;4.80;1.38;;;;;;;;;;4987783;28;20117;-82
2022/02/08 15:37:14;;;;;;;3.95;1.30;;;;;;;;;;4999197;28;20045;-82
2022/02/08 15:39:43;;;;;;;3.80;1.13;;;;;;;;;;4968759;28;20594;-83
2022/02/08 15:42:09;;;;;;;5.47;1.30;;;;;;;;;;4986612;28;20059;-82
2022/02/08 15:44:36;;;;;;;3.75;1.30;;;;;;;;;;5007305;28;20054;-81
2022/02/08 15:47:07;;;;;;;4.70;1.10;;;;;;;;;;5030379;28;20021;-82
2022/02/08 15:49:39;;;;;;;5.13;1.73;;;;;;;;;;5029533;28;20105;-82
2022/02/08 15:52:29;;;;;;;5.03;1.33;;;;;;;;;;5010553;28;20030;-82
2022/02/08 15:54:58;;;;;;;4.68;1.77;;;;;;;;;;5020661;28;20056;-82
2022/02/08 16:05:52;;;;;;;4.53;1.40;;;;;;;;;;5040825;28;20097;-82
2022/02/08 16:08:29;;;;;;;4.18;1.25;;;;;;;;;;5028650;28;20026;-81
2022/02/08 16:11:07;;;;;;;4.03;1.48;;;;;;;;;;5028665;28;20128;-82
2022/02/08 16:13:48;;;;;;;4.25;1.48;;;;;;;;;;5026278;28;20029;-82
2022/02/08 16:19:13;;;;;;;3.65;1.40;;;;;;;;;;5006127;28;20031;-81
2022/02/08 16:59:36;;;;;;;6.20;2.00;;;;;;;;;;5028894;28;20029;-81
2022/02/08 17:02:06;;;;;;;5.60;2.10;;;;;;;;;;5026826;28;20107;-82
2022/02/08 17:04:32;;;;;;;10.25;4.45;;;;;;;;;;5027765;28;20033;-83
2022/02/08 17:06:59;;;;;;;6.95;1.85;;;;;;;;;;5009989;28;20030;-79
2022/02/08 17:12:27;;;;;;;5.68;2.05;;;;;;;;;;5009437;28;20025;-80
2022/02/08 17:47:42;;;;;;;5.78;1.75;;;;;;;;;;5045979;28;20037;-81
2022/02/08 17:50:16;;;;;;;5.07;2.30;;;;;;;;;;5046684;28;20025;-82
2022/02/08 17:52:47;;;;;;;5.82;2.33;;;;;;;;;;5045212;28;20032;-80
2022/02/08 17:55:13;;;;;;;4.03;1.88;;;;;;;;;;5045039;28;20060;-82
2022/02/08 17:57:40;;;;;;;5.70;2.03;;;;;;;;;;5028804;28;20060;-81
2022/02/08 18:00:08;;;;;;;3.95;1.67;;;;;;;;;;5029611;28;20051;-82
2022/02/08 18:02:34;;;;;;;4.45;1.30;;;;;;;;;;5028180;28;20025;-82
2022/02/08 18:05:02;;;;;;;3.63;1.42;;;;;;;;;;5046170;28;20033;-81
2022/02/08 18:07:29;;;;;;;3.45;1.30;;;;;;;;;;5050233;28;20021;-82
2022/02/08 18:09:55;;;;;;;3.92;1.42;;;;;;;;;;5033712;28;20022;-80
2022/02/08 18:12:24;;;;;;;5.03;1.42;;;;;;;;;;5052011;28;20033;-82
2022/02/08 18:14:56;;;;;;;4.18;1.80;;;;;;;;;;5051416;28;20120;-81
2022/02/08 18:17:35;;;;;;;4.82;2.28;;;;;;;;;;5052329;28;20048;-83
2022/02/08 18:22:50;;;;;;;9.15;4.03;;;;;;;;;;5052709;28;20006;-82
2022/02/08 18:25:51;;;;;;;4.10;1.42;;;;;;;;;;5034934;28;20037;-82
2022/02/08 19:09:23;;;;;;;4.20;1.63;;;;;;;;;;5070705;28;20514;-82
2022/02/08 19:12:08;;;;;;;3.55;1.40;;;;;;;;;;5063494;28;20117;-81
2022/02/08 19:20:08;;;;;;;3.78;1.70;;;;;;;;;;5029370;28;20102;-83
2022/02/08 19:22:34;;;;;;;3.30;1.50;;;;;;;;;;5035590;28;20035;-82
2022/02/08 19:25:00;;;;;;;4.28;1.60;;;;;;;;;;5068779;28;20037;-82
2022/02/08 19:27:26;;;;;;;5.38;1.40;;;;;;;;;;5069991;28;20523;-82
2022/02/08 19:29:52;;;;;;;4.60;1.60;;;;;;;;;;5068730;28;20021;-82
2022/02/08 19:32:19;;;;;;;5.80;1.58;;;;;;;;;;5035231;28;20017;-82
2022/02/08 19:34:46;;;;;;;5.65;2.05;;;;;;;;;;5032215;28;20030;-81
2022/02/08 19:37:14;;;;;;;4.70;1.98;;;;;;;;;;5031226;28;20085;-81
2022/02/08 19:39:41;;;;;;;5.70;2.22;;;;;;;;;;5049655;28;20025;-82
2022/02/08 19:42:08;;;;;;;5.45;2.13;;;;;;;;;;5032276;28;20028;-82
2022/02/08 19:44:35;;;;;;;8.82;2.28;;;;;;;;;;5031281;28;20042;-82
2022/02/08 19:47:03;;;;;;;5.65;1.70;;;;;;;;;;5031945;28;20037;-81
2022/02/08 19:49:29;;;;;;;6.40;1.63;;;;;;;;;;5049079;28;20014;-81
2022/02/08 19:52:14;;;;;;;3.47;1.60;;;;;;;;;;5030939;28;20038;-83
2022/02/08 19:54:56;;;;;;;4.82;2.08;;;;;;;;;;5032462;28;20121;-81
2022/02/08 19:57:25;;;;;;;3.45;1.40;;;;;;;;;;5031321;28;20113;-81
2022/02/08 19:59:52;;;;;;;4.20;1.58;;;;;;;;;;5032408;28;20026;-81
2022/02/08 20:02:22;;;;;;;3.95;1.42;;;;;;;;;;5032317;28;20029;-79
2022/02/08 20:04:49;;;;;;;4.47;1.40;;;;;;;;;;5031446;28;20453;-81
2022/02/08 20:07:16;;;;;;;5.85;2.50;;;;;;;;;;5032064;28;20032;-82
2022/02/08 20:09:43;;;;;;;5.07;2.22;;;;;;;;;;5030626;28;20095;-81
2022/02/08 20:12:10;;;;;;;5.78;1.65;;;;;;;;;;5031309;28;20033;-82
2022/02/08 20:14:36;;;;;;;3.38;1.35;;;;;;;;;;5032347;28;20025;-82
2022/02/08 20:17:02;;;;;;;3.03;1.45;;;;;;;;;;5049585;28;20025;-81
2022/02/08 20:19:29;;;;;;;4.20;1.60;;;;;;;;;;5051573;28;20021;-80
2022/02/08 20:22:03;;;;;;;3.80;1.60;;;;;;;;;;5066847;28;20476;-81
2022/02/08 20:24:30;;;;;;;4.25;1.90;;;;;;;;;;5068284;28;20027;-82
2022/02/08 20:29:31;;;;;;;3.83;1.75;;;;;;;;;;5049547;28;20022;-81
2022/02/08 20:31:58;;;;;;;3.60;1.70;;;;;;;;;;5031134;28;20048;-82
2022/02/08 20:34:27;;;;;;;4.85;1.85;;;;;;;;;;5031238;28;20163;-82
2022/02/08 20:36:59;;;;;;;3.97;1.60;;;;;;;;;;5030394;28;20493;-81
2022/02/08 20:39:26;;;;;;;3.40;1.52;;;;;;;;;;5031190;28;20108;-82
2022/02/08 20:41:53;;;;;;;3.95;1.52;;;;;;;;;;5030457;28;20079;-80
2022/02/08 20:44:22;;;;;;;4.10;1.42;;;;;;;;;;5030169;28;20052;-80
2022/02/08 20:46:57;;;;;;;4.85;1.73;;;;;;;;;;5030220;28;20017;-81
2022/02/08 20:49:24;;;;;;;4.50;1.58;;;;;;;;;;5048133;28;20024;-82
2022/02/08 20:51:50;;;;;;;4.38;1.95;;;;;;;;;;5047953;28;20026;-81
2022/02/08 20:54:20;;;;;;;5.15;1.80;;;;;;;;;;5047410;28;20033;-80
2022/02/08 20:57:00;;;;;;;5.72;2.13;;;;;;;;;;5046668;28;20048;-80
2022/02/08 20:59:26;;;;;;;4.93;2.00;;;;;;;;;;5031783;28;20086;-79
2022/02/08 21:01:52;;;;;;;5.20;1.40;;;;;;;;;;5066564;28;20048;-81
2022/02/08 21:06:50;;;;;;;5.65;1.67;;;;;;;;;;5066516;28;20039;-83
2022/02/08 21:09:19;;;;;;;4.63;2.08;;;;;;;;;;5048217;28;20041;-81
2022/02/08 21:11:51;;;;;;;4.93;1.95;;;;;;;;;;5068660;28;20116;-80
2022/02/08 21:14:17;;;;;;;5.73;1.90;;;;;;;;;;5069691;28;20085;-81
2022/02/08 21:16:46;;;;;;;5.60;1.70;;;;;;;;;;5066335;28;20347;-82
2022/02/08 21:19:15;;;;;;;4.68;1.95;;;;;;;;;;5047055;28;20026;-81
2022/02/08 21:21:41;;;;;;;3.97;1.67;;;;;;;;;;5028316;28;20028;-81
2022/02/08 21:24:08;;;;;;;3.88;1.55;;;;;;;;;;5046744;28;20083;-80
2022/02/08 21:26:42;;;;;;;5.25;1.48;;;;;;;;;;5048001;28;20053;-82
2022/02/08 21:32:03;;;;;;;4.50;1.88;;;;;;;;;;5027224;28;20502;-81
2022/02/08 21:52:48;;;;;;;6.13;1.60;;;;;;;;;;5047666;28;20025;-82
2022/02/08 21:55:14;;;;;;;4.03;1.67;;;;;;;;;;5029317;28;20025;-81
2022/02/08 21:57:54;;;;;;;4.13;1.20;;;;;;;;;;5029166;28;20032;-81
2022/02/08 22:00:24;;;;;;;5.45;1.48;;;;;;;;;;5022321;28;20018;-82
2022/02/08 22:02:51;;;;;;;5.18;1.55;;;;;;;;;;5038897;28;20486;-82
2022/02/08 22:05:18;;;;;;;4.38;1.70;;;;;;;;;;5046679;28;20025;-82
2022/02/08 22:07:53;;;;;;;4.50;1.63;;;;;;;;;;5046273;28;20049;-82
2022/02/08 22:15:44;;;;;;;4.30;1.70;;;;;;;;;;5037017;28;20071;-81
2022/02/08 22:18:37;;;;;;;4.85;1.83;;;;;;;;;;5046375;28;20562;-81
2022/02/08 22:21:11;;;;;;;5.05;1.95;;;;;;;;;;5037073;28;20017;-81
2022/02/08 22:34:02;;;;;;;4.85;1.75;;;;;;;;;;5046461;28;20254;-82
2022/02/08 22:36:33;;;;;;;5.40;1.70;;;;;;;;;;5027931;28;20056;-82
2022/02/08 22:44:28;;;;;;;3.70;1.70;;;;;;;;;;5066380;28;20055;-83
2022/02/08 22:46:58;;;;;;;3.25;1.40;;;;;;;;;;5060411;28;20043;-82
2022/02/08 22:49:25;;;;;;;4.22;1.50;;;;;;;;;;5066138;28;20417;-82
2022/02/08 22:51:53;;;;;;;4.10;1.60;;;;;;;;;;5065681;28;20028;-81
2022/02/08 22:54:19;;;;;;;3.78;1.33;;;;;;;;;;5067708;28;20576;-82
2022/02/08 22:56:47;;;;;;;3.95;1.48;;;;;;;;;;5063713;28;20028;-82
2022/02/08 22:59:14;;;;;;;4.80;1.50;;;;;;;;;;5069434;28;20024;-81
2022/02/08 23:01:41;;;;;;;4.03;1.40;;;;;;;;;;5068554;28;20029;-82
2022/02/08 23:04:09;;;;;;;4.18;1.40;;;;;;;;;;5068938;28;20025;-82
2022/02/08 23:06:35;;;;;;;3.28;1.38;;;;;;;;;;5058912;28;20101;-81
2022/02/08 23:09:08;;;;;;;3.30;1.40;;;;;;;;;;5032263;28;20033;-83
2022/02/08 23:12:08;;;;;;;3.17;1.30;;;;;;;;;;5050450;28;20032;-83
2022/02/08 23:14:48;;;;;;;4.40;1.50;;;;;;;;;;5032014;28;20043;-81
2022/02/08 23:38:59;;;;;;;4.07;1.25;;;;;;;;;;5050472;28;20083;-83
2022/02/08 23:41:25;;;;;;;4.28;1.85;;;;;;;;;;5032725;28;20101;-80
2022/02/08 23:43:52;;;;;;;4.10;1.50;;;;;;;;;;5031807;28;20068;-80
2022/02/08 23:46:21;;;;;;;3.63;1.30;;;;;;;;;;5031515;28;20068;-81
2022/02/08 23:51:21;;;;;;;3.40;1.23;;;;;;;;;;5050101;28;20034;-83
2022/02/08 23:54:06;;;;;;;3.10;1.13;;;;;;;;;;5048868;28;20029;-82